Douglastown, Canada
Current Conditions -  °F | °C
As of 1:00 PM on Wednesday 26 Nov 2014 (Local Time) from CYGP Reporting Station
Broken Clouds Broken Clouds  
Wind Chill: 27°   Ceiling: 12000
Heat Index: 34°   Visibility: 15mi
Dew Point: 19°   Wind: 8mph
Humidity: 56%   Direction: 330°NNW
Pressure: 30.12"   Gusts: NA
Location:  48.76°N, 64.39°W
Report Text: CYGP 261800Z 33007KT 15SM BKN120 01/M07 A3012 RMK AC7 SLP203
Loading
Personal Weather Stations






























Interactive Weather Map New forecast layout! Learn more

10-Day Weather Forecast

Advertisements
Track Severe Weather on mobile